createdAt,value
2023-02-15T00:01:46.438Z,28.02
2023-02-15T00:04:16.959Z,30.27
2023-02-15T00:06:43.170Z,30.87
2023-02-15T00:09:10.002Z,29.40
2023-02-15T00:11:44.508Z,28.70
2023-02-15T00:14:12.855Z,29.45
2023-02-15T00:16:40.016Z,32.40
2023-02-15T00:19:06.755Z,30.83
2023-02-15T00:21:34.098Z,29.67
2023-02-15T00:24:01.134Z,30.17
2023-02-15T00:26:27.519Z,31.75
2023-02-15T00:28:54.311Z,28.30
2023-02-15T00:31:21.008Z,30.30
2023-02-15T00:33:47.290Z,31.48
2023-02-15T00:36:13.699Z,29.98
2023-02-15T00:38:40.006Z,30.50
2023-02-15T00:41:06.892Z,31.13
2023-02-15T00:43:33.864Z,27.70
2023-02-15T00:46:00.734Z,29.52
2023-02-15T00:48:27.277Z,33.33
2023-02-15T00:50:54.420Z,29.27
2023-02-15T00:53:20.770Z,31.55
2023-02-15T00:55:47.374Z,28.88
2023-02-15T00:58:13.942Z,29.25
2023-02-15T01:00:40.707Z,28.50
2023-02-15T01:03:06.917Z,26.02
2023-02-15T01:05:33.306Z,28.55
2023-02-15T01:08:00.041Z,31.73
2023-02-15T01:10:26.469Z,31.02
2023-02-15T01:12:53.217Z,30.80
2023-02-15T01:15:19.592Z,30.83
2023-02-15T01:17:51.983Z,29.80
2023-02-15T01:20:18.914Z,28.88
2023-02-15T01:22:45.117Z,29.27
2023-02-15T01:25:11.342Z,30.77
2023-02-15T01:27:37.564Z,30.60
2023-02-15T01:30:05.454Z,30.80
2023-02-15T01:32:31.931Z,32.60
2023-02-15T01:34:58.157Z,30.70
2023-02-15T01:37:24.364Z,30.85
2023-02-15T01:39:50.602Z,33.53
2023-02-15T01:42:21.706Z,29.85
2023-02-15T01:44:49.764Z,31.38
2023-02-15T01:47:37.451Z,29.50
2023-02-15T01:50:15.638Z,29.52
2023-02-15T01:52:44.750Z,31.00
2023-02-15T01:55:11.259Z,28.02
2023-02-15T01:57:37.623Z,28.60
2023-02-15T02:00:05.731Z,31.52
2023-02-15T02:02:57.719Z,29.58
2023-02-15T02:05:24.518Z,29.13
2023-02-15T02:07:52.538Z,31.30
2023-02-15T02:10:20.197Z,29.30
2023-02-15T02:12:47.517Z,30.08
2023-02-15T02:15:14.104Z,28.50
2023-02-15T02:17:50.945Z,29.05
2023-02-15T02:20:17.696Z,28.73
2023-02-15T02:23:02.365Z,28.02
2023-02-15T02:25:40.858Z,30.10
2023-02-15T02:28:19.187Z,28.38
2023-02-15T02:30:51.534Z,29.38
2023-02-15T02:33:29.819Z,30.85
2023-02-15T02:35:56.037Z,27.85
2023-02-15T02:38:29.171Z,29.00
2023-02-15T02:41:06.569Z,29.58
2023-02-15T02:43:44.432Z,29.45
2023-02-15T02:46:21.320Z,29.80
2023-02-15T02:48:48.970Z,30.77
2023-02-15T02:51:21.076Z,29.83
2023-02-15T02:53:47.479Z,29.98
2023-02-15T02:56:22.251Z,30.10
2023-02-15T02:58:50.666Z,30.08
2023-02-15T03:01:21.058Z,32.20
2023-02-15T03:03:52.034Z,28.93
2023-02-15T03:06:25.664Z,28.13
2023-02-15T03:08:54.252Z,27.23
2023-02-15T03:11:20.472Z,28.17
2023-02-15T03:13:48.462Z,27.15
2023-02-15T03:16:28.105Z,29.70
2023-02-15T03:19:10.971Z,26.90
2023-02-15T03:21:37.204Z,27.30
2023-02-15T03:24:09.283Z,28.63
2023-02-15T03:26:37.012Z,28.48
2023-02-15T03:29:04.938Z,29.10
2023-02-15T03:31:32.982Z,27.48
2023-02-15T03:34:00.911Z,30.40
2023-02-15T03:36:31.762Z,28.88
2023-02-15T03:39:16.727Z,31.10
2023-02-15T03:41:49.282Z,28.52
2023-02-15T03:44:19.901Z,27.85
2023-02-15T03:46:53.754Z,28.20
2023-02-15T03:49:40.364Z,28.40
2023-02-15T03:52:08.036Z,26.48
2023-02-15T03:54:44.399Z,28.15
2023-02-15T03:57:33.598Z,29.17
2023-02-15T04:00:19.444Z,29.42
2023-02-15T04:02:50.807Z,27.92
2023-02-15T04:07:43.206Z,28.17
2023-02-15T04:10:28.087Z,29.60
2023-02-15T04:12:54.319Z,27.77
2023-02-15T04:15:39.383Z,27.35
2023-02-15T04:18:05.655Z,29.75
2023-02-15T04:20:50.472Z,29.02
2023-02-15T04:23:35.375Z,28.30
2023-02-15T04:26:04.360Z,30.42
2023-02-15T04:28:30.558Z,28.70
2023-02-15T04:30:56.873Z,28.77
2023-02-15T04:33:23.106Z,27.50
2023-02-15T04:35:49.359Z,27.13
2023-02-15T04:38:15.604Z,31.90
2023-02-15T04:40:41.855Z,28.35
2023-02-15T04:43:08.090Z,26.70
2023-02-15T04:45:34.333Z,28.67
2023-02-15T04:48:00.623Z,28.80
2023-02-15T04:50:26.840Z,27.67
2023-02-15T04:52:53.029Z,28.88
2023-02-15T04:55:19.319Z,27.33
2023-02-15T04:57:46.617Z,26.50
2023-02-15T05:00:13.067Z,27.20
2023-02-15T05:02:39.259Z,27.05
2023-02-15T05:05:05.685Z,25.95
2023-02-15T05:07:31.919Z,26.33
2023-02-15T05:09:58.137Z,26.52
2023-02-15T05:12:24.369Z,28.05
2023-02-15T05:14:50.593Z,27.95
2023-02-15T05:17:16.801Z,24.65
2023-02-15T05:19:43.076Z,26.73
2023-02-15T05:22:09.294Z,26.73
2023-02-15T05:24:54.100Z,25.13
2023-02-15T05:27:38.876Z,27.70
2023-02-15T05:30:05.560Z,28.48
2023-02-15T05:32:31.890Z,27.08
2023-02-15T05:34:58.301Z,26.30
2023-02-15T05:37:24.510Z,25.85
2023-02-15T05:39:50.766Z,26.58
2023-02-15T05:42:17.014Z,24.60
2023-02-15T05:44:43.481Z,26.40
2023-02-15T05:47:09.757Z,26.73
2023-02-15T05:49:36.167Z,26.38
2023-02-15T05:52:02.429Z,27.52
2023-02-15T05:54:28.704Z,25.02
2023-02-15T05:56:54.985Z,24.95
2023-02-15T05:59:21.189Z,25.63
2023-02-15T06:01:47.384Z,25.73
2023-02-15T06:04:13.994Z,23.90
2023-02-15T06:06:40.230Z,24.85
2023-02-15T06:09:06.434Z,25.88
2023-02-15T06:11:32.680Z,24.10
2023-02-15T06:13:58.867Z,24.30
2023-02-15T06:16:25.093Z,27.88
2023-02-15T06:18:53.608Z,26.67
2023-02-15T06:21:20.083Z,23.88
2023-02-15T06:23:46.309Z,26.13
2023-02-15T06:26:12.606Z,24.58
2023-02-15T06:28:38.898Z,23.13
2023-02-15T06:31:05.278Z,22.20
2023-02-15T06:33:31.568Z,23.20
2023-02-15T06:35:57.791Z,22.92
2023-02-15T06:38:23.974Z,27.13
2023-02-15T06:40:50.212Z,24.23
2023-02-15T06:43:16.599Z,24.77
2023-02-15T06:45:43.194Z,23.35
2023-02-15T06:48:09.789Z,23.70
2023-02-15T06:50:36.037Z,24.58
2023-02-15T06:53:02.222Z,24.42
2023-02-15T06:55:28.441Z,23.35
2023-02-15T06:57:54.710Z,23.98
2023-02-15T07:00:22.954Z,24.67
2023-02-15T07:02:49.228Z,25.13
2023-02-15T07:05:15.571Z,23.60
2023-02-15T07:07:41.880Z,25.60
2023-02-15T07:10:08.277Z,25.02
2023-02-15T07:12:43.784Z,25.40
2023-02-15T07:15:10.720Z,25.10
2023-02-15T07:17:37.282Z,23.08
2023-02-15T07:20:08.691Z,22.63
2023-02-15T07:25:04.402Z,23.63
2023-02-15T07:27:31.457Z,24.08
2023-02-15T07:29:57.736Z,23.83
2023-02-15T07:32:23.984Z,23.52
2023-02-15T07:34:50.349Z,23.27
2023-02-15T07:37:16.565Z,23.38
2023-02-15T07:39:42.786Z,20.90
2023-02-15T07:42:09.007Z,21.98
2023-02-15T07:44:35.242Z,21.50
2023-02-15T07:47:01.458Z,21.77
2023-02-15T07:49:27.984Z,20.48
2023-02-15T07:51:54.294Z,20.52
2023-02-15T07:54:20.538Z,20.40
2023-02-15T07:56:46.763Z,22.30
2023-02-15T07:59:13.032Z,19.98
2023-02-15T08:01:39.765Z,21.15
2023-02-15T08:04:06.892Z,23.02
2023-02-15T08:06:34.281Z,23.67
2023-02-15T08:09:01.802Z,21.77
2023-02-15T08:11:40.132Z,22.17
2023-02-15T08:14:07.619Z,22.13
2023-02-15T08:16:35.151Z,23.92
2023-02-15T08:19:03.658Z,23.20
2023-02-15T08:21:30.462Z,21.77
2023-02-15T08:23:57.255Z,21.10
2023-02-15T08:26:23.951Z,22.50
2023-02-15T08:28:51.440Z,20.58
2023-02-15T08:31:18.112Z,21.63
2023-02-15T08:33:44.890Z,22.13
2023-02-15T08:36:15.855Z,22.83
2023-02-15T08:38:42.543Z,20.83
2023-02-15T08:41:19.921Z,21.52
2023-02-15T08:43:47.542Z,23.67
2023-02-15T08:46:14.375Z,22.75
2023-02-15T08:48:40.748Z,22.98
2023-02-15T08:51:17.634Z,22.13
2023-02-15T08:53:45.555Z,21.45
2023-02-15T08:56:12.198Z,21.10
2023-02-15T08:58:38.916Z,20.05
2023-02-15T09:01:18.705Z,18.25
2023-02-15T09:03:46.135Z,18.02
2023-02-15T09:06:12.710Z,17.25
2023-02-15T09:08:39.041Z,17.13
2023-02-15T09:11:06.034Z,16.42
2023-02-15T09:13:32.301Z,16.50
2023-02-15T09:16:02.539Z,17.63
2023-02-15T09:18:30.430Z,16.88
2023-02-15T09:20:56.832Z,15.80
2023-02-15T09:23:27.249Z,14.90
2023-02-15T09:25:53.726Z,16.00
2023-02-15T09:28:20.003Z,15.30
2023-02-15T09:30:46.270Z,14.70
2023-02-15T09:33:12.579Z,14.63
2023-02-15T09:35:38.798Z,14.57
2023-02-15T09:38:05.008Z,15.07
2023-02-15T09:40:36.364Z,13.73
2023-02-15T09:43:02.546Z,13.18
2023-02-15T09:45:41.225Z,13.82
2023-02-15T09:48:46.197Z,13.30
2023-02-15T09:51:18.603Z,13.43
2023-02-15T09:53:55.589Z,14.30
2023-02-15T09:56:27.924Z,14.15
2023-02-15T09:59:13.249Z,14.52
2023-02-15T10:01:48.666Z,13.25
2023-02-15T10:04:20.862Z,14.57
2023-02-15T10:06:47.148Z,13.77
2023-02-15T10:09:34.103Z,15.35
2023-02-15T10:12:22.189Z,13.57
2023-02-15T10:14:51.468Z,14.15
2023-02-15T10:17:42.720Z,14.80
2023-02-15T10:20:27.913Z,14.75
2023-02-15T10:23:13.131Z,14.65
2023-02-15T10:25:46.622Z,14.48
2023-02-15T10:28:19.196Z,14.82
2023-02-15T10:30:50.105Z,13.82
2023-02-15T10:33:19.157Z,13.48
2023-02-15T10:35:45.413Z,13.88
2023-02-15T10:38:28.381Z,15.35
2023-02-15T10:41:00.739Z,14.45
2023-02-15T10:43:36.134Z,14.02
2023-02-15T10:46:13.245Z,12.60
2023-02-15T10:48:45.728Z,12.00
2023-02-15T10:51:15.440Z,12.00
2023-02-15T10:53:47.691Z,14.20
2023-02-15T10:56:37.217Z,12.85
2023-02-15T10:59:09.522Z,12.70
2023-02-15T11:01:41.639Z,13.13
2023-02-15T11:04:10.998Z,12.65
2023-02-15T11:06:40.010Z,11.80
2023-02-15T11:09:10.840Z,12.73
2023-02-15T11:11:40.217Z,13.30
2023-02-15T11:14:15.463Z,13.43
2023-02-15T11:16:45.268Z,12.25
2023-02-15T11:19:18.507Z,13.68
2023-02-15T11:21:46.567Z,13.07
2023-02-15T11:24:14.168Z,13.23
2023-02-15T11:26:43.706Z,11.95
2023-02-15T11:29:09.945Z,12.02
2023-02-15T11:31:42.713Z,12.02
2023-02-15T11:34:15.254Z,12.32
2023-02-15T11:36:41.908Z,12.05
2023-02-15T11:39:16.392Z,11.25
2023-02-15T11:41:45.341Z,12.40
2023-02-15T11:44:11.620Z,11.30
2023-02-15T11:46:37.960Z,11.75
2023-02-15T11:49:10.091Z,11.65
2023-02-15T11:51:36.660Z,12.20
2023-02-15T11:54:03.587Z,11.88
2023-02-15T11:56:32.382Z,11.82
2023-02-15T11:59:04.837Z,11.02
2023-02-15T12:01:32.999Z,10.52
2023-02-15T12:04:08.994Z,11.43
2023-02-15T12:06:39.628Z,12.00
2023-02-15T12:09:05.791Z,12.05
2023-02-15T12:11:38.977Z,12.00
2023-02-15T12:14:09.870Z,11.93
2023-02-15T12:16:42.926Z,11.68
2023-02-15T12:19:18.614Z,11.38
2023-02-15T12:21:45.644Z,11.15
2023-02-15T12:24:19.220Z,11.98
2023-02-15T12:26:45.766Z,11.57
2023-02-15T12:29:19.292Z,11.40
2023-02-15T12:31:46.987Z,12.45
2023-02-15T12:34:23.988Z,11.10
2023-02-15T12:36:55.179Z,12.40
2023-02-15T12:39:23.050Z,11.48
2023-02-15T12:41:55.214Z,11.40
2023-02-15T12:44:25.065Z,11.65
2023-02-15T12:46:57.321Z,12.35
2023-02-15T12:49:23.686Z,11.40
2023-02-15T12:51:52.010Z,12.10
2023-02-15T12:54:39.405Z,11.75
2023-02-15T12:57:23.122Z,11.80
2023-02-15T12:59:50.434Z,10.63
2023-02-15T13:02:21.022Z,11.27
2023-02-15T13:04:51.109Z,10.82
2023-02-15T13:07:17.359Z,12.45
2023-02-15T13:09:44.070Z,12.30
2023-02-15T13:12:18.601Z,11.77
2023-02-15T13:14:51.755Z,11.63
2023-02-15T13:17:18.613Z,12.55
2023-02-15T13:19:49.765Z,13.45
2023-02-15T13:22:18.567Z,12.13
2023-02-15T13:24:49.254Z,10.75
2023-02-15T13:27:17.481Z,12.98
2023-02-15T13:29:44.794Z,12.25
2023-02-15T13:32:28.173Z,11.85
2023-02-15T13:34:57.727Z,12.45
2023-02-15T13:37:32.285Z,13.07
2023-02-15T13:40:08.131Z,12.88
2023-02-15T13:42:38.994Z,12.68
2023-02-15T13:45:24.497Z,12.07
2023-02-15T13:47:53.309Z,11.52
2023-02-15T13:50:29.989Z,11.18
2023-02-15T13:53:15.047Z,12.00
2023-02-15T13:55:45.954Z,11.02
2023-02-15T13:58:35.282Z,11.73
2023-02-15T14:01:15.680Z,12.43
2023-02-15T14:03:49.568Z,11.75
2023-02-15T14:06:15.859Z,11.77
2023-02-15T14:08:52.653Z,11.38
2023-02-15T14:11:30.858Z,10.98
2023-02-15T14:14:02.371Z,11.75
2023-02-15T14:19:05.893Z,12.50
2023-02-15T14:21:33.292Z,12.85
2023-02-15T14:24:02.364Z,12.98
2023-02-15T14:26:32.895Z,11.25
2023-02-15T14:29:08.716Z,12.05
2023-02-15T14:31:37.742Z,12.40
2023-02-15T14:34:04.940Z,13.68
2023-02-15T14:36:31.537Z,13.32
2023-02-15T14:39:06.595Z,13.98
2023-02-15T14:41:38.679Z,13.07
2023-02-15T14:44:12.310Z,13.80
2023-02-15T14:46:38.671Z,13.05
2023-02-15T14:49:12.314Z,13.68
2023-02-15T14:51:43.878Z,13.73
2023-02-15T14:56:36.620Z,13.82
2023-02-15T14:59:12.002Z,13.38
2023-02-15T15:01:39.188Z,14.48
2023-02-15T15:04:07.194Z,12.68
2023-02-15T15:06:34.577Z,14.73
2023-02-15T15:09:21.046Z,14.45
2023-02-15T15:11:48.308Z,14.13
2023-02-15T15:14:32.949Z,13.55
2023-02-15T15:17:00.244Z,13.45
2023-02-15T15:19:52.573Z,12.88
2023-02-15T15:22:24.446Z,13.13
2023-02-15T15:27:36.881Z,13.82
2023-02-15T15:30:03.723Z,15.20
2023-02-15T15:32:32.980Z,14.95
2023-02-15T15:35:02.175Z,14.68
2023-02-15T15:37:28.390Z,15.38
2023-02-15T15:40:14.021Z,17.80
2023-02-15T15:42:59.140Z,16.08
2023-02-15T15:45:43.667Z,16.15
2023-02-15T15:48:22.141Z,15.10
2023-02-15T15:50:53.279Z,15.35
2023-02-15T15:53:21.706Z,14.82
2023-02-15T15:55:49.706Z,15.35
2023-02-15T15:58:17.570Z,14.18
2023-02-15T16:00:59.138Z,13.98
2023-02-15T16:03:26.348Z,14.75
2023-02-15T16:05:56.383Z,14.63
2023-02-15T16:08:33.665Z,14.35
2023-02-15T16:11:00.949Z,16.02
2023-02-15T16:13:27.323Z,15.50
2023-02-15T16:15:54.994Z,14.85
2023-02-15T16:18:26.258Z,15.20
2023-02-15T16:20:58.012Z,16.17
2023-02-15T16:23:24.218Z,16.33
2023-02-15T16:25:59.758Z,14.73
2023-02-15T16:28:25.967Z,15.93
2023-02-15T16:31:07.750Z,15.50
2023-02-15T16:33:38.320Z,15.18
2023-02-15T16:36:05.694Z,14.32
2023-02-15T16:38:41.120Z,14.15
2023-02-15T16:41:08.298Z,15.27
2023-02-15T16:43:34.589Z,16.25
2023-02-15T16:46:05.711Z,15.43
2023-02-15T16:48:32.848Z,16.73
2023-02-15T16:50:59.811Z,17.60
2023-02-15T16:53:27.703Z,16.25
2023-02-15T16:55:59.249Z,16.10
2023-02-15T17:00:51.966Z,16.45
2023-02-15T17:03:18.846Z,16.48
2023-02-15T17:05:46.354Z,15.50
2023-02-15T17:08:24.271Z,14.95
2023-02-15T17:10:59.987Z,14.68
2023-02-15T17:13:27.321Z,14.40
2023-02-15T17:16:00.344Z,15.20
2023-02-15T17:18:28.072Z,14.23
2023-02-15T17:20:59.803Z,14.18
2023-02-15T17:23:29.602Z,14.43
2023-02-15T17:25:56.043Z,14.95
2023-02-15T17:28:24.004Z,14.93
2023-02-15T17:30:51.611Z,14.43
2023-02-15T17:33:20.664Z,14.48
2023-02-15T17:36:02.655Z,14.73
2023-02-15T17:38:28.859Z,14.95
2023-02-15T17:40:55.126Z,14.02
2023-02-15T17:43:21.323Z,15.10
2023-02-15T17:45:48.913Z,15.30
2023-02-15T17:48:22.715Z,15.18
2023-02-15T17:50:49.247Z,15.15
2023-02-15T17:53:19.040Z,14.90
2023-02-15T17:55:45.685Z,14.00
2023-02-15T17:58:12.889Z,15.70
2023-02-15T18:01:00.215Z,13.75
2023-02-15T18:03:47.993Z,13.60
2023-02-15T18:06:32.996Z,14.60
2023-02-15T18:09:18.078Z,14.88
2023-02-15T18:11:48.560Z,15.82
2023-02-15T18:14:14.789Z,16.05
2023-02-15T18:16:43.132Z,15.15
2023-02-15T18:19:11.786Z,16.27
2023-02-15T18:21:38.042Z,14.90
2023-02-15T18:24:04.242Z,15.77
2023-02-15T18:26:30.442Z,15.73
2023-02-15T18:28:56.689Z,14.88
2023-02-15T18:31:24.193Z,15.30
2023-02-15T18:33:52.856Z,15.95
2023-02-15T18:36:32.404Z,15.90
2023-02-15T18:38:59.162Z,15.82
2023-02-15T18:41:27.622Z,14.90
2023-02-15T18:43:55.316Z,16.27
2023-02-15T18:46:21.937Z,16.08
2023-02-15T18:48:48.381Z,15.27
2023-02-15T18:51:21.843Z,16.38
2023-02-15T18:53:49.990Z,16.25
2023-02-15T18:56:17.355Z,15.90
2023-02-15T18:58:45.682Z,14.82
2023-02-15T19:01:20.171Z,16.27
2023-02-15T19:03:47.738Z,14.80
2023-02-15T19:06:15.907Z,16.25
2023-02-15T19:08:44.080Z,15.88
2023-02-15T19:11:22.327Z,14.68
2023-02-15T19:13:49.301Z,16.10
2023-02-15T19:16:22.861Z,15.77
2023-02-15T19:18:49.083Z,16.52
2023-02-15T19:21:15.689Z,15.52
2023-02-15T19:23:41.940Z,16.33
2023-02-15T19:26:08.181Z,15.10
2023-02-15T19:28:34.532Z,14.73
2023-02-15T19:31:00.870Z,15.43
2023-02-15T19:33:27.152Z,15.13
2023-02-15T19:35:56.138Z,16.42
2023-02-15T19:38:27.368Z,15.30
2023-02-15T19:40:55.988Z,15.88
2023-02-15T19:43:27.603Z,15.52
2023-02-15T19:45:53.915Z,15.90
2023-02-15T19:48:20.246Z,16.17
2023-02-15T19:50:46.967Z,15.85
2023-02-15T19:53:33.421Z,15.70
2023-02-15T19:55:59.698Z,16.27
2023-02-15T19:58:25.948Z,15.27
2023-02-15T20:00:52.211Z,15.25
2023-02-15T20:03:18.505Z,16.73
2023-02-15T20:05:45.018Z,16.05
2023-02-15T20:08:16.529Z,17.20
2023-02-15T20:13:12.619Z,16.88
2023-02-15T20:15:39.484Z,16.23
2023-02-15T20:18:06.679Z,16.55
2023-02-15T20:20:38.172Z,16.98
2023-02-15T20:25:31.966Z,16.50
2023-02-15T20:27:59.302Z,19.35
2023-02-15T20:30:27.241Z,18.48
2023-02-15T20:32:53.646Z,18.27
2023-02-15T20:35:21.141Z,17.27
2023-02-15T20:37:48.292Z,17.50
2023-02-15T20:40:22.064Z,16.80
2023-02-15T20:42:48.611Z,17.77
2023-02-15T20:45:22.258Z,19.02
2023-02-15T20:47:49.067Z,18.35
2023-02-15T20:50:16.272Z,18.73
2023-02-15T20:52:43.035Z,17.52
2023-02-15T20:55:13.544Z,19.08
2023-02-15T20:57:39.765Z,18.55
2023-02-15T21:00:07.014Z,19.38
2023-02-15T21:02:33.250Z,18.98
2023-02-15T21:05:00.551Z,16.63
2023-02-15T21:07:26.850Z,17.20
2023-02-15T21:09:54.105Z,18.60
2023-02-15T21:12:21.959Z,17.02
2023-02-15T21:14:48.243Z,17.00
2023-02-15T21:17:16.391Z,17.27
2023-02-15T21:19:42.704Z,18.00
2023-02-15T21:22:12.094Z,19.50
2023-02-15T21:24:38.332Z,20.33
2023-02-15T21:27:06.684Z,18.30
2023-02-15T21:29:33.011Z,17.05
2023-02-15T21:32:00.380Z,17.08
2023-02-15T21:34:26.696Z,18.27
2023-02-15T21:36:53.420Z,17.13
2023-02-15T21:39:24.234Z,15.90
2023-02-15T21:42:09.690Z,18.60
2023-02-15T21:44:54.801Z,17.27
2023-02-15T21:47:43.845Z,20.35
2023-02-15T21:50:30.863Z,18.60
2023-02-15T21:52:57.659Z,17.33
2023-02-15T21:55:24.030Z,16.77
2023-02-15T21:57:50.342Z,18.15
2023-02-15T22:00:21.244Z,17.70
2023-02-15T22:02:48.518Z,17.30
2023-02-15T22:05:19.075Z,18.90
2023-02-15T22:07:45.624Z,19.53
2023-02-15T22:10:12.327Z,19.30
2023-02-15T22:12:39.197Z,19.58
2023-02-15T22:15:05.693Z,19.15
2023-02-15T22:17:34.282Z,19.40
2023-02-15T22:20:00.498Z,19.63
2023-02-15T22:22:26.882Z,21.40
2023-02-15T22:24:53.123Z,18.75
2023-02-15T22:27:21.148Z,18.70
2023-02-15T22:29:48.509Z,20.45
2023-02-15T22:32:22.381Z,18.83
2023-02-15T22:34:49.249Z,19.75
2023-02-15T22:37:15.657Z,19.90
2023-02-15T22:39:41.868Z,20.50
2023-02-15T22:42:25.114Z,20.88
2023-02-15T22:44:53.217Z,20.95
2023-02-15T22:47:23.746Z,19.13
2023-02-15T22:49:50.232Z,19.90
2023-02-15T22:52:16.753Z,19.48
2023-02-15T22:54:42.947Z,19.13
2023-02-15T22:57:15.949Z,20.65
2023-02-15T22:59:42.202Z,22.00
2023-02-15T23:02:10.485Z,20.17
2023-02-15T23:04:36.740Z,19.70
2023-02-15T23:07:05.979Z,23.38
2023-02-15T23:09:32.603Z,21.13
2023-02-15T23:11:58.860Z,21.98
2023-02-15T23:14:27.309Z,22.65
2023-02-15T23:16:53.984Z,20.73
2023-02-15T23:19:20.601Z,20.63
2023-02-15T23:21:46.822Z,21.50
2023-02-15T23:24:22.545Z,22.15
2023-02-15T23:26:50.421Z,21.30
2023-02-15T23:29:21.445Z,21.38
2023-02-15T23:31:54.289Z,19.80
2023-02-15T23:34:30.970Z,21.25
2023-02-15T23:36:57.241Z,21.27
2023-02-15T23:39:43.796Z,22.50
2023-02-15T23:42:13.114Z,20.80
2023-02-15T23:44:39.589Z,19.92
2023-02-15T23:47:06.456Z,21.13
2023-02-15T23:49:32.696Z,21.58
2023-02-15T23:52:02.071Z,22.27
2023-02-15T23:54:28.279Z,20.40
2023-02-15T23:56:57.330Z,21.92
2023-02-15T23:59:24.838Z,20.92
